Time;durP1;ratioP1;P1;durP2;ratioP2;P2;SDS_P1;SDS_P2;PMS_P1;PMS_P2;Temp;Humidity;BMP_temperature;BMP_pressure;BME280_temperature;BME280_humidity;BME280_pressure;Samples;Min_cycle;Max_cycle;Signal;HPM_P1;HPM_P2
2023/04/28 00:02:18;;;;;;;;;3.67;0.67;;;;;;;;5018263;28;47483;-84
2023/04/28 00:04:44;;;;;;;;;0.00;0.00;;;;;;;;5035244;28;45476;-86
2023/04/28 00:07:09;;;;;;;;;1.50;1.00;;;;;;;;5034917;28;45254;-84
2023/04/28 00:09:35;;;;;;;;;1.00;1.00;;;;;;;;5034934;28;45339;-81
2023/04/28 00:12:01;;;;;;;;;2.00;1.00;;;;;;;;5035296;28;46028;-83
2023/04/28 00:14:26;;;;;;;;;3.00;1.00;;;;;;;;5035050;28;45381;-85
2023/04/28 00:16:51;;;;;;;;;1.00;0.00;;;;;;;;5035438;28;45274;-85
2023/04/28 00:19:17;;;;;;;;;0.00;0.00;;;;;;;;5034955;28;45382;-84
2023/04/28 00:21:42;;;;;;;;;5.00;0.00;;;;;;;;5034552;28;45293;-83
2023/04/28 00:24:07;;;;;;;;;2.33;0.00;;;;;;;;5034966;28;45399;-84
2023/04/28 00:26:32;;;;;;;;;2.00;0.33;;;;;;;;5035012;28;45427;-85
2023/04/28 00:28:58;;;;;;;;;1.67;1.00;;;;;;;;5033546;28;45341;-85
2023/04/28 00:31:23;;;;;;;;;4.00;0.67;;;;;;;;5033905;28;46127;-84
2023/04/28 00:33:48;;;;;;;;;1.00;0.00;;;;;;;;5037913;28;45590;-83
2023/04/28 00:36:13;;;;;;;;;2.00;1.00;;;;;;;;5036688;28;45383;-83
2023/04/28 00:38:38;;;;;;;;;1.33;1.33;;;;;;;;5038406;28;45291;-84
2023/04/28 00:41:03;;;;;;;;;2.67;1.67;;;;;;;;5037863;28;45456;-82
2023/04/28 00:43:29;;;;;;;;;2.00;0.00;;;;;;;;5038162;28;45326;-81
2023/04/28 00:45:54;;;;;;;;;1.33;1.33;;;;;;;;5037879;28;45323;-82
2023/04/28 00:48:19;;;;;;;;;2.00;1.00;;;;;;;;5037928;28;45469;-81
2023/04/28 00:50:45;;;;;;;;;1.00;1.00;;;;;;;;5037647;28;46247;-81
2023/04/28 00:53:10;;;;;;;;;1.00;1.00;;;;;;;;5037838;28;45300;-82
2023/04/28 00:55:36;;;;;;;;;2.25;1.00;;;;;;;;5037617;28;45379;-82
2023/04/28 00:58:01;;;;;;;;;1.00;1.00;;;;;;;;5037926;28;45396;-82
2023/04/28 01:00:26;;;;;;;;;3.00;1.33;;;;;;;;5037639;28;45436;-83
2023/04/28 01:02:52;;;;;;;;;2.00;1.00;;;;;;;;5037495;28;45342;-82
2023/04/28 01:05:18;;;;;;;;;1.00;1.00;;;;;;;;5037158;28;45273;-82
2023/04/28 01:07:43;;;;;;;;;0.25;0.25;;;;;;;;5036217;28;45506;-82
2023/04/28 01:10:09;;;;;;;;;0.50;0.50;;;;;;;;5037023;28;46203;-81
2023/04/28 01:12:34;;;;;;;;;0.75;0.75;;;;;;;;5026695;28;45270;-82
2023/04/28 01:14:59;;;;;;;;;1.00;0.00;;;;;;;;5022146;28;45324;-83
2023/04/28 01:17:24;;;;;;;;;1.00;1.00;;;;;;;;5022287;28;45423;-83
2023/04/28 01:19:51;;;;;;;;;1.50;0.25;;;;;;;;5016375;28;46669;-84
2023/04/28 01:22:17;;;;;;;;;1.00;1.00;;;;;;;;5016021;28;45686;-85
2023/04/28 01:24:42;;;;;;;;;0.33;0.00;;;;;;;;5017460;28;45207;-84
2023/04/28 01:27:07;;;;;;;;;0.33;0.00;;;;;;;;5017398;28;45222;-82
2023/04/28 01:29:32;;;;;;;;;0.00;0.00;;;;;;;;5017236;28;46699;-83
2023/04/28 01:31:57;;;;;;;;;0.67;0.00;;;;;;;;5017282;28;45475;-82
2023/04/28 01:34:23;;;;;;;;;1.00;1.00;;;;;;;;5017140;28;45380;-82
2023/04/28 01:36:48;;;;;;;;;0.00;0.00;;;;;;;;5017541;28;45384;-82
2023/04/28 01:39:13;;;;;;;;;1.00;1.00;;;;;;;;5016996;28;45433;-84
2023/04/28 01:41:39;;;;;;;;;0.50;0.50;;;;;;;;5017011;28;45733;-82
2023/04/28 01:44:06;;;;;;;;;0.25;0.25;;;;;;;;5016089;28;45584;-82
2023/04/28 01:46:31;;;;;;;;;1.00;1.00;;;;;;;;5017065;28;45570;-81
2023/04/28 01:48:56;;;;;;;;;0.00;0.00;;;;;;;;5016648;28;46701;-82
2023/04/28 01:51:21;;;;;;;;;1.00;1.00;;;;;;;;5016873;28;45361;-81
2023/04/28 01:53:47;;;;;;;;;1.00;1.00;;;;;;;;5017072;28;45537;-82
2023/04/28 01:56:12;;;;;;;;;0.33;0.00;;;;;;;;5017132;28;45509;-81
2023/04/28 01:58:37;;;;;;;;;0.33;0.33;;;;;;;;5031183;28;47545;-81
2023/04/28 02:01:02;;;;;;;;;1.00;0.00;;;;;;;;5036783;28;45431;-81
2023/04/28 02:03:27;;;;;;;;;1.00;1.00;;;;;;;;5036928;28;45431;-81
2023/04/28 02:05:53;;;;;;;;;1.00;1.00;;;;;;;;5036476;28;45270;-81
2023/04/28 02:08:18;;;;;;;;;1.50;0.75;;;;;;;;5036421;28;46097;-81
2023/04/28 02:10:44;;;;;;;;;0.67;0.67;;;;;;;;5036727;28;45292;-81
2023/04/28 02:13:09;;;;;;;;;0.50;0.50;;;;;;;;5036561;28;45221;-81
2023/04/28 02:15:38;;;;;;;;;0.00;0.00;;;;;;;;5036374;28;45285;-81
2023/04/28 02:18:03;;;;;;;;;0.00;0.00;;;;;;;;5036186;28;46562;-82
2023/04/28 02:20:28;;;;;;;;;0.00;0.00;;;;;;;;5036658;28;45551;-82
2023/04/28 02:22:54;;;;;;;;;2.00;1.00;;;;;;;;5036674;28;45494;-82
2023/04/28 02:25:19;;;;;;;;;0.25;0.00;;;;;;;;5036305;28;45571;-81
2023/04/28 02:27:45;;;;;;;;;0.00;0.00;;;;;;;;5036003;28;46957;-81
2023/04/28 02:30:10;;;;;;;;;0.00;0.00;;;;;;;;5037018;28;45364;-81
2023/04/28 02:32:35;;;;;;;;;0.50;0.50;;;;;;;;5036006;28;45346;-81
2023/04/28 02:35:00;;;;;;;;;0.00;0.00;;;;;;;;5036119;28;45510;-81
2023/04/28 02:37:26;;;;;;;;;0.00;0.00;;;;;;;;5036032;28;46343;-81
2023/04/28 02:39:51;;;;;;;;;0.33;0.00;;;;;;;;5035977;28;45333;-81
2023/04/28 02:42:16;;;;;;;;;0.67;0.00;;;;;;;;5036295;28;45285;-82
2023/04/28 02:44:41;;;;;;;;;0.00;0.00;;;;;;;;5036247;28;45457;-81
2023/04/28 02:47:06;;;;;;;;;0.00;0.00;;;;;;;;5035624;28;45399;-81
2023/04/28 02:49:32;;;;;;;;;1.33;0.00;;;;;;;;5036084;28;45294;-81
2023/04/28 02:51:57;;;;;;;;;0.00;0.00;;;;;;;;5035927;28;45297;-80
2023/04/28 02:54:28;;;;;;;;;0.33;0.00;;;;;;;;5035449;28;45423;-81
2023/04/28 02:56:54;;;;;;;;;2.50;0.00;;;;;;;;5035726;28;46104;-81
2023/04/28 02:59:20;;;;;;;;;0.00;0.00;;;;;;;;5035924;28;45724;-81
2023/04/28 03:01:45;;;;;;;;;0.25;0.25;;;;;;;;5035356;28;45496;-81
2023/04/28 03:04:10;;;;;;;;;0.00;0.00;;;;;;;;5036064;28;45312;-81
2023/04/28 03:06:35;;;;;;;;;0.00;0.00;;;;;;;;5035584;28;45440;-81
2023/04/28 03:09:01;;;;;;;;;0.00;0.00;;;;;;;;5035419;28;45356;-82
2023/04/28 03:11:26;;;;;;;;;0.00;0.00;;;;;;;;5035889;28;45293;-82
2023/04/28 03:13:51;;;;;;;;;0.00;0.00;;;;;;;;5035676;28;45439;-82
2023/04/28 03:16:16;;;;;;;;;2.00;0.00;;;;;;;;5035331;28;46495;-82
2023/04/28 03:18:41;;;;;;;;;0.00;0.00;;;;;;;;5035822;28;45670;-82
2023/04/28 03:21:07;;;;;;;;;0.00;0.00;;;;;;;;5035855;28;45422;-83
2023/04/28 03:23:32;;;;;;;;;0.67;0.00;;;;;;;;5035738;28;45353;-83
2023/04/28 03:25:57;;;;;;;;;0.00;0.00;;;;;;;;5035399;28;46304;-83
2023/04/28 03:28:22;;;;;;;;;0.00;0.00;;;;;;;;5035507;28;45456;-82
2023/04/28 03:30:47;;;;;;;;;0.33;0.00;;;;;;;;5035526;28;45438;-82
2023/04/28 03:33:12;;;;;;;;;1.67;0.00;;;;;;;;5035517;28;45476;-83
2023/04/28 03:35:38;;;;;;;;;2.00;0.00;;;;;;;;5034756;28;45696;-81
2023/04/28 03:38:03;;;;;;;;;1.00;0.00;;;;;;;;5035550;28;45329;-82
2023/04/28 03:40:28;;;;;;;;;0.00;0.00;;;;;;;;5035619;28;45408;-82
2023/04/28 03:42:54;;;;;;;;;0.00;0.00;;;;;;;;5035468;28;45407;-82
2023/04/28 03:45:19;;;;;;;;;0.00;0.00;;;;;;;;5034855;28;46619;-82
2023/04/28 03:47:44;;;;;;;;;0.00;0.00;;;;;;;;5035099;28;45468;-83
2023/04/28 03:50:09;;;;;;;;;1.00;0.00;;;;;;;;5035252;28;45310;-82
2023/04/28 03:52:35;;;;;;;;;0.00;0.00;;;;;;;;5035095;28;45431;-83
2023/04/28 03:55:00;;;;;;;;;0.00;0.00;;;;;;;;5034816;28;45586;-82
2023/04/28 03:57:25;;;;;;;;;0.00;0.00;;;;;;;;5035330;28;45328;-83
2023/04/28 03:59:50;;;;;;;;;0.00;0.00;;;;;;;;5034798;28;45406;-83
2023/04/28 04:02:16;;;;;;;;;0.00;0.00;;;;;;;;5035190;28;45328;-83
2023/04/28 04:04:41;;;;;;;;;1.00;0.00;;;;;;;;5034814;28;45365;-83
2023/04/28 04:07:06;;;;;;;;;0.00;0.00;;;;;;;;5036577;28;45397;-84
2023/04/28 04:09:31;;;;;;;;;0.00;0.00;;;;;;;;5038425;28;45299;-83
2023/04/28 04:11:57;;;;;;;;;0.00;0.00;;;;;;;;5038405;28;45365;-83
2023/04/28 04:14:22;;;;;;;;;0.50;0.50;;;;;;;;5038068;28;46561;-82
2023/04/28 04:16:48;;;;;;;;;0.00;0.00;;;;;;;;5038394;28;45353;-83
2023/04/28 04:19:13;;;;;;;;;0.00;0.00;;;;;;;;5038483;28;45576;-82
2023/04/28 04:21:38;;;;;;;;;0.00;0.00;;;;;;;;5038315;28;45432;-83
2023/04/28 04:24:04;;;;;;;;;0.00;0.00;;;;;;;;5038144;28;45407;-83
2023/04/28 04:26:29;;;;;;;;;0.00;0.00;;;;;;;;5038248;28;45452;-83
2023/04/28 04:28:54;;;;;;;;;0.00;0.00;;;;;;;;5019921;28;45372;-84
2023/04/28 04:31:21;;;;;;;;;0.00;0.00;;;;;;;;5038504;28;45533;-83
2023/04/28 04:33:46;;;;;;;;;0.00;0.00;;;;;;;;5035834;28;45424;-84
2023/04/28 04:36:11;;;;;;;;;1.00;0.00;;;;;;;;5038229;28;45479;-83
2023/04/28 04:38:37;;;;;;;;;0.00;0.00;;;;;;;;5038335;28;45375;-83
2023/04/28 04:41:02;;;;;;;;;0.00;0.00;;;;;;;;5019908;28;45584;-83
2023/04/28 04:43:27;;;;;;;;;0.00;0.00;;;;;;;;5037728;28;46561;-82
2023/04/28 04:45:54;;;;;;;;;0.00;0.00;;;;;;;;5037882;28;45515;-82
2023/04/28 04:48:19;;;;;;;;;0.00;0.00;;;;;;;;5038196;28;45375;-83
2023/04/28 04:50:44;;;;;;;;;0.00;0.00;;;;;;;;5020126;28;45544;-83
2023/04/28 04:53:09;;;;;;;;;0.00;0.00;;;;;;;;5037777;28;45397;-83
2023/04/28 04:55:35;;;;;;;;;0.00;0.00;;;;;;;;5038016;28;45768;-83
2023/04/28 04:58:00;;;;;;;;;0.00;0.00;;;;;;;;5037513;28;45262;-83
2023/04/28 05:00:25;;;;;;;;;0.00;0.00;;;;;;;;5037888;28;45230;-83
2023/04/28 05:02:50;;;;;;;;;0.00;0.00;;;;;;;;5037923;28;46427;-83
2023/04/28 05:05:16;;;;;;;;;0.00;0.00;;;;;;;;5037803;28;45227;-82
2023/04/28 05:07:41;;;;;;;;;1.00;0.00;;;;;;;;5037366;28;45205;-83
2023/04/28 05:10:07;;;;;;;;;0.25;0.00;;;;;;;;5037651;28;45384;-83
2023/04/28 05:12:32;;;;;;;;;0.00;0.00;;;;;;;;5036912;28;45347;-83
2023/04/28 05:14:57;;;;;;;;;0.00;0.00;;;;;;;;5037577;28;45308;-83
2023/04/28 05:17:23;;;;;;;;;0.00;0.00;;;;;;;;5037672;28;45539;-83
2023/04/28 05:19:48;;;;;;;;;0.00;0.00;;;;;;;;5037560;28;45431;-83
2023/04/28 05:22:13;;;;;;;;;0.00;0.00;;;;;;;;5037375;28;45435;-83
2023/04/28 05:24:38;;;;;;;;;0.67;0.00;;;;;;;;5019444;28;45610;-83
2023/04/28 05:27:03;;;;;;;;;0.00;0.00;;;;;;;;5018842;28;45343;-83
2023/04/28 05:29:29;;;;;;;;;0.33;0.33;;;;;;;;5037562;28;45395;-82
2023/04/28 05:31:54;;;;;;;;;2.00;0.00;;;;;;;;5036969;28;45483;-83
2023/04/28 05:34:19;;;;;;;;;0.00;0.00;;;;;;;;5036705;28;45721;-83
2023/04/28 05:36:44;;;;;;;;;0.00;0.00;;;;;;;;5018122;28;45460;-83
2023/04/28 05:39:10;;;;;;;;;0.25;0.00;;;;;;;;5037135;28;45428;-82
2023/04/28 05:41:38;;;;;;;;;2.00;0.00;;;;;;;;5036558;28;46061;-82
2023/04/28 05:44:03;;;;;;;;;0.25;0.00;;;;;;;;5037145;28;45606;-82
2023/04/28 05:46:30;;;;;;;;;1.00;0.00;;;;;;;;5037161;28;45501;-83
2023/04/28 05:48:55;;;;;;;;;1.25;0.00;;;;;;;;5036978;28;45464;-83
2023/04/28 05:51:21;;;;;;;;;0.00;0.00;;;;;;;;5036893;28;45387;-82
2023/04/28 05:53:47;;;;;;;;;0.00;0.00;;;;;;;;5036654;28;45535;-82
2023/04/28 05:56:13;;;;;;;;;0.00;0.00;;;;;;;;5036503;28;45404;-83
2023/04/28 05:58:38;;;;;;;;;0.00;0.00;;;;;;;;5036827;28;45321;-82
2023/04/28 06:01:03;;;;;;;;;0.00;0.00;;;;;;;;5018867;28;46289;-83
2023/04/28 06:03:28;;;;;;;;;0.00;0.00;;;;;;;;5018979;28;45748;-84
2023/04/28 06:05:53;;;;;;;;;1.00;0.00;;;;;;;;5018602;28;45459;-83
2023/04/28 06:08:19;;;;;;;;;0.00;0.00;;;;;;;;5018705;28;45456;-82
2023/04/28 06:10:44;;;;;;;;;0.00;0.00;;;;;;;;5036142;28;46290;-81
2023/04/28 06:13:10;;;;;;;;;0.25;0.00;;;;;;;;5036465;28;45439;-84
2023/04/28 06:15:35;;;;;;;;;0.00;0.00;;;;;;;;5035083;28;45739;-84
2023/04/28 06:18:00;;;;;;;;;0.00;0.00;;;;;;;;5026195;28;45465;-82
2023/04/28 06:20:25;;;;;;;;;0.00;0.00;;;;;;;;5036424;28;45497;-83
2023/04/28 06:22:50;;;;;;;;;1.00;0.00;;;;;;;;5020563;28;45424;-84
2023/04/28 06:25:16;;;;;;;;;0.00;0.00;;;;;;;;5016366;28;45330;-83
2023/04/28 06:27:41;;;;;;;;;0.00;0.00;;;;;;;;5016552;28;45333;-83
2023/04/28 06:30:06;;;;;;;;;0.00;0.00;;;;;;;;5015995;28;45765;-84
2023/04/28 06:32:32;;;;;;;;;0.00;0.00;;;;;;;;5016575;28;45365;-85
2023/04/28 06:34:57;;;;;;;;;0.50;0.00;;;;;;;;5032182;28;45309;-84
2023/04/28 06:37:22;;;;;;;;;0.67;0.00;;;;;;;;5036377;28;45353;-84
2023/04/28 06:39:48;;;;;;;;;0.00;0.00;;;;;;;;5036050;28;46499;-82
2023/04/28 06:42:17;;;;;;;;;0.00;0.00;;;;;;;;5035936;28;45463;-82
2023/04/28 06:44:42;;;;;;;;;0.00;0.00;;;;;;;;5035626;28;45289;-85
2023/04/28 06:47:07;;;;;;;;;0.00;0.00;;;;;;;;5020219;28;45568;-88
2023/04/28 06:49:32;;;;;;;;;0.00;0.00;;;;;;;;5037220;28;46445;-87
2023/04/28 06:51:58;;;;;;;;;0.00;0.00;;;;;;;;5019107;28;45349;-85
2023/04/28 06:54:23;;;;;;;;;0.00;0.00;;;;;;;;5016726;28;45451;-85
2023/04/28 06:56:48;;;;;;;;;0.00;0.00;;;;;;;;5036276;28;45375;-88
2023/04/28 06:59:13;;;;;;;;;0.33;0.00;;;;;;;;5016712;28;47363;-84
2023/04/28 07:01:38;;;;;;;;;0.67;0.00;;;;;;;;5016179;28;45401;-86
2023/04/28 07:04:04;;;;;;;;;0.00;0.00;;;;;;;;5025441;28;45385;-91
2023/04/28 07:06:31;;;;;;;;;4.00;0.00;;;;;;;;5036641;28;45455;-85
2023/04/28 07:08:56;;;;;;;;;0.00;0.00;;;;;;;;5010554;28;47319;-86
2023/04/28 07:11:22;;;;;;;;;1.00;0.00;;;;;;;;5033796;28;45408;-84
2023/04/28 07:13:49;;;;;;;;;0.00;0.00;;;;;;;;5014577;28;45433;-83
2023/04/28 07:16:14;;;;;;;;;0.75;0.00;;;;;;;;5015517;28;45303;-82
2023/04/28 07:18:39;;;;;;;;;0.00;0.00;;;;;;;;5016171;28;46030;-84
2023/04/28 07:21:05;;;;;;;;;0.50;0.00;;;;;;;;5022284;28;45444;-88
2023/04/28 07:23:30;;;;;;;;;0.25;0.00;;;;;;;;5016547;28;45719;-87
2023/04/28 07:25:56;;;;;;;;;0.00;0.00;;;;;;;;5023543;28;45698;-88
2023/04/28 07:28:21;;;;;;;;;1.00;0.00;;;;;;;;5028994;28;45523;-86
2023/04/28 07:30:46;;;;;;;;;0.00;0.00;;;;;;;;5008726;28;45660;-84
2023/04/28 07:33:11;;;;;;;;;0.00;0.00;;;;;;;;5013550;28;45519;-86
2023/04/28 07:35:36;;;;;;;;;1.00;1.00;;;;;;;;5033616;28;45524;-86
2023/04/28 07:38:02;;;;;;;;;1.00;0.00;;;;;;;;5035021;28;47231;-84
2023/04/28 07:40:27;;;;;;;;;1.00;1.00;;;;;;;;5034424;28;45534;-84
2023/04/28 07:42:53;;;;;;;;;0.00;0.00;;;;;;;;5019567;28;45345;-85
2023/04/28 07:45:18;;;;;;;;;0.00;0.00;;;;;;;;5038354;28;45482;-85
2023/04/28 07:47:43;;;;;;;;;0.00;0.00;;;;;;;;5037872;28;45485;-84
2023/04/28 07:50:09;;;;;;;;;0.00;0.00;;;;;;;;5037909;28;45575;-85
2023/04/28 07:52:34;;;;;;;;;0.00;0.00;;;;;;;;5029209;28;45347;-86
2023/04/28 07:55:01;;;;;;;;;0.33;0.00;;;;;;;;5022409;28;45392;-86
2023/04/28 07:57:28;;;;;;;;;0.00;0.00;;;;;;;;5038445;28;46403;-86
2023/04/28 07:59:53;;;;;;;;;1.00;0.00;;;;;;;;5037990;28;45403;-85
2023/04/28 08:02:19;;;;;;;;;0.00;0.00;;;;;;;;5038093;28;45293;-85
2023/04/28 08:04:44;;;;;;;;;1.00;0.00;;;;;;;;5038486;28;45337;-85
2023/04/28 08:07:09;;;;;;;;;0.00;0.00;;;;;;;;5037740;28;46185;-85
2023/04/28 08:09:35;;;;;;;;;1.00;0.00;;;;;;;;5037625;28;45339;-85
2023/04/28 08:12:00;;;;;;;;;0.00;0.00;;;;;;;;5038536;28;45429;-85
2023/04/28 08:14:26;;;;;;;;;0.00;0.00;;;;;;;;5023369;28;45463;-84
2023/04/28 08:16:51;;;;;;;;;0.25;0.00;;;;;;;;5037423;28;46127;-85
2023/04/28 08:19:16;;;;;;;;;0.00;0.00;;;;;;;;5038010;28;45261;-84
2023/04/28 08:21:41;;;;;;;;;0.00;0.00;;;;;;;;5038662;28;45436;-85
2023/04/28 08:24:09;;;;;;;;;0.00;0.00;;;;;;;;5030966;28;45637;-85
2023/04/28 08:26:34;;;;;;;;;0.75;0.00;;;;;;;;5037115;28;46102;-84
2023/04/28 08:29:00;;;;;;;;;0.25;0.00;;;;;;;;5017005;28;45499;-86
2023/04/28 08:31:25;;;;;;;;;2.33;0.00;;;;;;;;5018442;28;45480;-84
2023/04/28 08:33:51;;;;;;;;;0.00;0.00;;;;;;;;5037706;28;46199;-85
2023/04/28 08:36:17;;;;;;;;;0.00;0.00;;;;;;;;5003628;28;47929;-87
2023/04/28 08:38:42;;;;;;;;;0.00;0.00;;;;;;;;5036814;28;45390;-84
2023/04/28 08:41:08;;;;;;;;;0.75;0.00;;;;;;;;5020644;28;45626;-84
2023/04/28 08:43:34;;;;;;;;;0.00;0.00;;;;;;;;5039691;28;45470;-87
2023/04/28 08:46:04;;;;;;;;;0.00;0.00;;;;;;;;5020116;28;47383;-84
2023/04/28 08:48:30;;;;;;;;;0.00;0.00;;;;;;;;5019612;28;45846;-84
2023/04/28 08:50:56;;;;;;;;;0.00;0.00;;;;;;;;5043586;28;45310;-84
2023/04/28 08:53:24;;;;;;;;;0.00;0.00;;;;;;;;5039901;28;45458;-84
2023/04/28 08:55:50;;;;;;;;;0.00;0.00;;;;;;;;5037047;28;47282;-84
2023/04/28 08:58:16;;;;;;;;;0.00;0.00;;;;;;;;5037100;28;45684;-85
2023/04/28 09:00:41;;;;;;;;;0.00;0.00;;;;;;;;5019817;28;45331;-86
2023/04/28 09:03:07;;;;;;;;;1.33;0.00;;;;;;;;5019938;28;45602;-85
2023/04/28 09:05:32;;;;;;;;;0.00;0.00;;;;;;;;5019295;28;47468;-86
2023/04/28 09:08:00;;;;;;;;;0.00;0.00;;;;;;;;5037437;28;45525;-87
2023/04/28 09:10:26;;;;;;;;;3.00;0.00;;;;;;;;5038005;28;45444;-87
2023/04/28 09:12:53;;;;;;;;;0.50;0.50;;;;;;;;5019984;28;45441;-86
2023/04/28 09:15:25;;;;;;;;;0.00;0.00;;;;;;;;5036802;28;45463;-84
2023/04/28 09:17:51;;;;;;;;;0.50;0.00;;;;;;;;5036861;28;45462;-84
2023/04/28 09:20:20;;;;;;;;;0.00;0.00;;;;;;;;5035768;28;45403;-86
2023/04/28 09:22:45;;;;;;;;;0.00;0.00;;;;;;;;5036866;28;45368;-85
2023/04/28 09:25:11;;;;;;;;;0.00;0.00;;;;;;;;5041287;28;46621;-84
2023/04/28 09:27:36;;;;;;;;;0.00;0.00;;;;;;;;5035934;28;45280;-88
2023/04/28 09:30:02;;;;;;;;;0.50;0.00;;;;;;;;5037807;28;45430;-91
2023/04/28 09:32:29;;;;;;;;;0.00;0.00;;;;;;;;5038248;28;45283;-91
2023/04/28 09:34:58;;;;;;;;;0.75;0.00;;;;;;;;5024982;28;47388;-91
2023/04/28 09:37:29;;;;;;;;;2.00;0.00;;;;;;;;5039197;28;45585;-92
2023/04/28 09:39:54;;;;;;;;;0.00;0.00;;;;;;;;5046415;28;45249;-92
2023/04/28 09:42:41;;;;;;;;;0.00;0.00;;;;;;;;5041852;28;45481;-91
2023/04/28 09:45:15;;;;;;;;;0.00;0.00;;;;;;;;5016804;28;46942;-93
2023/04/28 09:47:45;;;;;;;;;2.00;0.00;;;;;;;;5038861;28;45620;-93
2023/04/28 09:50:21;;;;;;;;;0.50;0.00;;;;;;;;5037546;28;45495;-92
2023/04/28 09:52:55;;;;;;;;;0.00;0.00;;;;;;;;5021260;28;45573;-91
2023/04/28 09:55:31;;;;;;;;;0.00;0.00;;;;;;;;5020932;28;47144;-95
2023/04/28 09:58:00;;;;;;;;;0.00;0.00;;;;;;;;5038841;28;45281;-92
2023/04/28 10:00:26;;;;;;;;;0.75;0.75;;;;;;;;5046611;28;45472;-92
2023/04/28 10:02:51;;;;;;;;;0.00;0.00;;;;;;;;5020458;28;45507;-88
2023/04/28 10:05:20;;;;;;;;;1.50;0.00;;;;;;;;5027660;28;45662;-95
2023/04/28 10:07:45;;;;;;;;;0.00;0.00;;;;;;;;5018723;28;45176;-90
2023/04/28 10:10:13;;;;;;;;;1.33;0.00;;;;;;;;5019285;28;45496;-88
2023/04/28 10:12:43;;;;;;;;;0.00;0.00;;;;;;;;5038546;28;45542;-89
2023/04/28 10:15:09;;;;;;;;;0.00;0.00;;;;;;;;5031634;28;45796;-90
2023/04/28 10:17:35;;;;;;;;;0.00;0.00;;;;;;;;5014920;28;45604;-89
2023/04/28 10:20:00;;;;;;;;;1.00;0.00;;;;;;;;5032952;28;45270;-88
2023/04/28 10:22:44;;;;;;;;;0.00;0.00;;;;;;;;5011389;28;45361;-89
2023/04/28 10:25:10;;;;;;;;;0.00;0.00;;;;;;;;5033652;28;46458;-88
2023/04/28 10:27:37;;;;;;;;;0.00;0.00;;;;;;;;5022231;28;45278;-87
2023/04/28 10:30:09;;;;;;;;;0.00;0.00;;;;;;;;5012220;28;45757;-89
2023/04/28 10:32:35;;;;;;;;;0.00;0.00;;;;;;;;5013414;28;45386;-87
2023/04/28 10:35:19;;;;;;;;;1.50;0.00;;;;;;;;4999152;28;47101;-89
2023/04/28 10:38:09;;;;;;;;;0.00;0.00;;;;;;;;5007074;28;45676;-87
2023/04/28 10:40:35;;;;;;;;;0.25;0.00;;;;;;;;5037395;28;45486;-89
2023/04/28 10:43:00;;;;;;;;;0.00;0.00;;;;;;;;5032217;28;45480;-85
2023/04/28 10:45:52;;;;;;;;;0.00;0.00;;;;;;;;5012075;28;48110;-86
2023/04/28 10:48:18;;;;;;;;;0.00;0.00;;;;;;;;5026575;28;45336;-84
2023/04/28 10:51:04;;;;;;;;;0.00;0.00;;;;;;;;5036247;28;45440;-85
2023/04/28 10:53:45;;;;;;;;;0.75;0.00;;;;;;;;5035775;28;45715;-84
2023/04/28 10:56:20;;;;;;;;;0.00;0.00;;;;;;;;5029324;28;46970;-82
2023/04/28 10:58:45;;;;;;;;;0.00;0.00;;;;;;;;5029627;28;45314;-84
2023/04/28 11:01:23;;;;;;;;;0.00;0.00;;;;;;;;5017636;28;45471;-83
2023/04/28 11:03:50;;;;;;;;;0.00;0.00;;;;;;;;5005571;28;45397;-83
2023/04/28 11:06:34;;;;;;;;;0.00;0.00;;;;;;;;5025482;28;46363;-84
2023/04/28 11:09:00;;;;;;;;;0.00;0.00;;;;;;;;5034789;28;45372;-83
2023/04/28 11:11:28;;;;;;;;;0.00;0.00;;;;;;;;5033895;28;45495;-80
2023/04/28 11:13:54;;;;;;;;;1.00;0.00;;;;;;;;5029560;28;45371;-79
2023/04/28 11:16:20;;;;;;;;;0.00;0.00;;;;;;;;5014847;28;46937;-81
2023/04/28 11:18:51;;;;;;;;;0.00;0.00;;;;;;;;5015187;28;45542;-81
2023/04/28 11:21:17;;;;;;;;;1.50;0.00;;;;;;;;5015174;28;45334;-82
2023/04/28 11:23:43;;;;;;;;;0.50;0.00;;;;;;;;5014896;28;45394;-84
2023/04/28 11:26:08;;;;;;;;;0.00;0.00;;;;;;;;5022546;28;45937;-83
2023/04/28 11:28:35;;;;;;;;;0.00;0.00;;;;;;;;5029976;28;45474;-84
2023/04/28 11:31:10;;;;;;;;;0.00;0.00;;;;;;;;5011818;28;45440;-83
2023/04/28 11:33:37;;;;;;;;;0.00;0.00;;;;;;;;5015124;28;45696;-88
2023/04/28 11:36:02;;;;;;;;;0.00;0.00;;;;;;;;5033971;28;45417;-85
2023/04/28 11:38:27;;;;;;;;;0.00;0.00;;;;;;;;5032419;28;45460;-81
2023/04/28 11:40:58;;;;;;;;;0.33;0.00;;;;;;;;5029631;28;45744;-83
2023/04/28 11:43:30;;;;;;;;;0.00;0.00;;;;;;;;5018224;28;45498;-83
2023/04/28 11:45:56;;;;;;;;;0.00;0.00;;;;;;;;5019577;28;45585;-83
2023/04/28 11:48:21;;;;;;;;;0.00;0.00;;;;;;;;5032835;28;45417;-85
2023/04/28 11:50:46;;;;;;;;;0.00;0.00;;;;;;;;5034590;28;45349;-84
2023/04/28 11:53:12;;;;;;;;;0.00;0.00;;;;;;;;5034599;28;45499;-85
2023/04/28 11:55:37;;;;;;;;;0.00;0.00;;;;;;;;5029786;28;45589;-84
2023/04/28 11:58:20;;;;;;;;;0.67;0.00;;;;;;;;5028906;28;45525;-83
2023/04/28 12:01:04;;;;;;;;;0.00;0.00;;;;;;;;5030392;28;45421;-84
2023/04/28 12:03:30;;;;;;;;;0.00;0.00;;;;;;;;5011581;28;45511;-83
2023/04/28 12:05:55;;;;;;;;;0.00;0.00;;;;;;;;5030571;28;45411;-84
2023/04/28 12:08:30;;;;;;;;;0.00;0.00;;;;;;;;5031482;28;45531;-85
2023/04/28 12:11:14;;;;;;;;;0.00;0.00;;;;;;;;5026859;28;46715;-85
2023/04/28 12:13:48;;;;;;;;;0.00;0.00;;;;;;;;5007474;28;45662;-87
2023/04/28 12:16:34;;;;;;;;;0.00;0.00;;;;;;;;5028292;28;46235;-85
2023/04/28 12:18:59;;;;;;;;;0.00;0.00;;;;;;;;5033941;28;45666;-85
2023/04/28 12:21:24;;;;;;;;;0.00;0.00;;;;;;;;5028760;28;45471;-84
2023/04/28 12:23:50;;;;;;;;;0.33;0.00;;;;;;;;5034174;28;45451;-89
2023/04/28 12:26:24;;;;;;;;;0.00;0.00;;;;;;;;5027967;28;45349;-84
2023/04/28 12:28:49;;;;;;;;;0.00;0.00;;;;;;;;5030386;28;45479;-86
2023/04/28 12:31:14;;;;;;;;;0.00;0.00;;;;;;;;5019458;28;45382;-83
2023/04/28 12:33:40;;;;;;;;;0.00;0.00;;;;;;;;5028052;28;45493;-86
2023/04/28 12:36:05;;;;;;;;;0.00;0.00;;;;;;;;5006321;28;46978;-84
2023/04/28 12:38:31;;;;;;;;;0.00;0.00;;;;;;;;5037652;28;45495;-84
2023/04/28 12:40:57;;;;;;;;;0.00;0.00;;;;;;;;5031508;28;45447;-85
2023/04/28 12:43:23;;;;;;;;;0.00;0.00;;;;;;;;5036290;28;45404;-85
2023/04/28 12:45:52;;;;;;;;;0.00;0.00;;;;;;;;5016906;28;45667;-85
2023/04/28 12:48:18;;;;;;;;;0.00;0.00;;;;;;;;5019512;28;45668;-86
2023/04/28 12:50:43;;;;;;;;;0.00;0.00;;;;;;;;5035862;28;45457;-87
2023/04/28 12:53:08;;;;;;;;;0.00;0.00;;;;;;;;5019490;28;45359;-85
2023/04/28 12:55:33;;;;;;;;;0.00;0.00;;;;;;;;5021020;28;45366;-87
2023/04/28 12:57:59;;;;;;;;;0.00;0.00;;;;;;;;5031471;28;45519;-86
2023/04/28 13:00:24;;;;;;;;;0.00;0.00;;;;;;;;5016511;28;45518;-84
2023/04/28 13:02:50;;;;;;;;;0.00;0.00;;;;;;;;5025501;28;45480;-92
2023/04/28 13:05:15;;;;;;;;;0.00;0.00;;;;;;;;5037268;28;46108;-86
2023/04/28 13:07:40;;;;;;;;;0.00;0.00;;;;;;;;5030800;28;45444;-88
2023/04/28 13:10:08;;;;;;;;;0.00;0.00;;;;;;;;5002690;28;45515;-91
2023/04/28 13:12:34;;;;;;;;;0.00;0.00;;;;;;;;4998760;28;45548;-89
2023/04/28 13:15:02;;;;;;;;;0.00;0.00;;;;;;;;5005603;28;46115;-89
2023/04/28 13:17:28;;;;;;;;;0.00;0.00;;;;;;;;5017508;28;46574;-87
2023/04/28 13:19:54;;;;;;;;;0.00;0.00;;;;;;;;4993424;28;45692;-90
2023/04/28 13:22:20;;;;;;;;;0.00;0.00;;;;;;;;5014491;28;45565;-86
2023/04/28 13:24:46;;;;;;;;;0.00;0.00;;;;;;;;5015814;28;45483;-88
2023/04/28 13:27:11;;;;;;;;;0.00;0.00;;;;;;;;5016440;28;45421;-86
2023/04/28 13:29:36;;;;;;;;;0.00;0.00;;;;;;;;5015934;28;45844;-84
2023/04/28 13:32:01;;;;;;;;;0.00;0.00;;;;;;;;5016552;28;45407;-85
2023/04/28 13:34:29;;;;;;;;;0.00;0.00;;;;;;;;5015808;28;45632;-85
2023/04/28 13:36:55;;;;;;;;;0.00;0.00;;;;;;;;5003634;28;45231;-85
2023/04/28 13:39:20;;;;;;;;;0.00;0.00;;;;;;;;4994964;28;45350;-85
2023/04/28 13:41:46;;;;;;;;;0.00;0.00;;;;;;;;5018031;28;45423;-85
2023/04/28 13:44:11;;;;;;;;;0.00;0.00;;;;;;;;5015820;28;45630;-86
2023/04/28 13:46:36;;;;;;;;;0.00;0.00;;;;;;;;5016701;28;45298;-89
2023/04/28 13:49:02;;;;;;;;;0.00;0.00;;;;;;;;5017081;28;45709;-86
2023/04/28 13:51:27;;;;;;;;;0.00;0.00;;;;;;;;5015777;28;45719;-87
2023/04/28 13:53:52;;;;;;;;;0.00;0.00;;;;;;;;5015293;28;45323;-86
2023/04/28 13:56:18;;;;;;;;;0.00;0.00;;;;;;;;5009908;28;45289;-86
2023/04/28 13:58:43;;;;;;;;;0.00;0.00;;;;;;;;5007785;28;45525;-87
2023/04/28 14:01:08;;;;;;;;;0.00;0.00;;;;;;;;5019208;28;45413;-86
2023/04/28 14:03:34;;;;;;;;;0.00;0.00;;;;;;;;5011360;28;46458;-86
2023/04/28 14:05:59;;;;;;;;;0.00;0.00;;;;;;;;5001773;28;45691;-88
2023/04/28 14:08:26;;;;;;;;;0.00;0.00;;;;;;;;5006624;28;45592;-86
2023/04/28 14:10:51;;;;;;;;;0.00;0.00;;;;;;;;5008060;28;45458;-87
2023/04/28 14:13:17;;;;;;;;;1.33;0.00;;;;;;;;5014078;28;45522;-86
2023/04/28 14:15:44;;;;;;;;;0.00;0.00;;;;;;;;5001310;28;45667;-86
2023/04/28 14:18:09;;;;;;;;;0.00;0.00;;;;;;;;5006505;28;45362;-88
2023/04/28 14:20:35;;;;;;;;;0.00;0.00;;;;;;;;5016554;28;45507;-88
2023/04/28 14:23:00;;;;;;;;;0.33;0.00;;;;;;;;5012883;28;45396;-87
2023/04/28 14:25:25;;;;;;;;;0.00;0.00;;;;;;;;5011876;28;45482;-86
2023/04/28 14:27:51;;;;;;;;;0.00;0.00;;;;;;;;5015359;28;45476;-87
2023/04/28 14:30:36;;;;;;;;;0.00;0.00;;;;;;;;4997662;28;45576;-94
2023/04/28 14:33:01;;;;;;;;;0.00;0.00;;;;;;;;4983546;28;48832;-89
2023/04/28 14:35:48;;;;;;;;;0.00;0.00;;;;;;;;5014458;28;45421;-96
2023/04/28 14:38:13;;;;;;;;;0.00;0.00;;;;;;;;4998125;28;45567;-90
2023/04/28 14:40:39;;;;;;;;;0.00;0.00;;;;;;;;5000477;28;45736;-89